createdAt,value
2019-06-15T00:00:05.264Z,0.00
2019-06-15T00:01:00.577Z,0.00
2019-06-15T00:02:00.444Z,4.00
2019-06-15T00:03:01.269Z,4.00
2019-06-15T00:04:05.297Z,0.00
2019-06-15T00:05:00.468Z,0.00
2019-06-15T00:06:00.696Z,0.00
2019-06-15T00:07:00.579Z,4.00
2019-06-15T00:08:00.490Z,4.00
2019-06-15T00:09:00.555Z,4.00
2019-06-15T00:10:00.645Z,4.00
2019-06-15T00:11:01.335Z,4.00
2019-06-15T00:12:00.288Z,4.00
2019-06-15T00:13:00.426Z,4.00
2019-06-15T00:14:00.484Z,8.00
2019-06-15T00:15:00.544Z,4.00
2019-06-15T00:16:02.404Z,4.00
2019-06-15T00:17:00.287Z,8.00
2019-06-15T00:18:00.420Z,4.00
2019-06-15T00:19:00.471Z,8.00
2019-06-15T00:20:00.262Z,4.00
2019-06-15T00:21:00.328Z,8.00
2019-06-15T00:22:01.291Z,12.00
2019-06-15T00:23:00.282Z,8.00
2019-06-15T00:24:00.288Z,12.00
2019-06-15T00:25:00.145Z,8.00
2019-06-15T00:26:00.148Z,12.00
2019-06-15T00:28:00.185Z,12.00
2019-06-15T00:29:00.241Z,16.00
2019-06-15T00:30:00.299Z,16.00
2019-06-15T00:31:00.144Z,16.00
2019-06-15T00:32:00.296Z,16.00
2019-06-15T00:33:00.968Z,16.00
2019-06-15T00:34:00.326Z,16.00
2019-06-15T00:35:00.281Z,20.00
2019-06-15T00:36:00.141Z,20.00
2019-06-15T00:37:00.060Z,16.00
2019-06-15T00:38:00.135Z,20.00
2019-06-15T00:39:03.147Z,20.00
2019-06-15T00:40:00.075Z,20.00
2019-06-15T00:41:00.028Z,20.00
2019-06-15T00:41:59.951Z,20.00
2019-06-15T00:43:00.021Z,24.00
2019-06-15T00:45:00.819Z,28.00
2019-06-15T00:46:00.019Z,24.00
2019-06-15T00:47:00.024Z,28.00
2019-06-15T00:48:00.104Z,28.00
2019-06-15T00:49:02.951Z,32.00
2019-06-15T00:49:59.932Z,32.00
2019-06-15T00:50:59.831Z,32.00
2019-06-15T00:52:00.015Z,32.00
2019-06-15T00:52:59.891Z,32.00
2019-06-15T00:53:59.797Z,36.00
2019-06-15T00:54:59.954Z,40.00
2019-06-15T00:56:00.697Z,32.00
2019-06-15T00:58:00.030Z,36.00
2019-06-15T00:59:00.155Z,36.00
2019-06-15T00:59:59.781Z,40.00
2019-06-15T01:00:59.768Z,44.00
2019-06-15T01:02:07.090Z,52.00
2019-06-15T01:03:53.174Z,56.00
2019-06-15T01:04:53.305Z,56.00
2019-06-15T01:05:53.787Z,72.00
2019-06-15T01:06:53.266Z,68.00
2019-06-15T01:07:53.229Z,72.00
2019-06-15T01:08:53.142Z,72.00
2019-06-15T01:09:53.136Z,76.00
2019-06-15T01:10:53.140Z,76.00
2019-06-15T01:11:53.158Z,76.00
2019-06-15T01:12:53.139Z,84.00
2019-06-15T01:13:53.197Z,80.00
2019-06-15T01:14:53.250Z,80.00
2019-06-15T01:15:53.074Z,84.00
2019-06-15T01:16:52.921Z,92.00
2019-06-15T01:17:53.124Z,92.00
2019-06-15T01:19:54.986Z,108.00
2019-06-15T01:20:53.007Z,96.00
2019-06-15T01:21:57.829Z,112.00
2019-06-15T01:22:53.851Z,112.00
2019-06-15T01:23:52.974Z,112.00
2019-06-15T01:25:04.870Z,144.00
2019-06-15T01:25:53.005Z,128.00
2019-06-15T01:26:53.034Z,128.00
2019-06-15T01:27:52.949Z,136.00
2019-06-15T01:28:52.960Z,144.00
2019-06-15T01:29:54.700Z,148.00
2019-06-15T01:30:55.720Z,156.00
2019-06-15T01:31:52.886Z,160.00
2019-06-15T01:32:52.889Z,196.00
2019-06-15T01:33:52.809Z,208.00
2019-06-15T01:34:52.942Z,188.00
2019-06-15T01:35:52.980Z,184.00
2019-06-15T01:36:52.697Z,184.00
2019-06-15T01:37:52.796Z,236.00
2019-06-15T01:38:52.697Z,224.00
2019-06-15T01:39:52.734Z,212.00
2019-06-15T01:40:53.801Z,224.00
2019-06-15T01:41:53.124Z,196.00
2019-06-15T01:42:52.876Z,216.00
2019-06-15T01:43:52.877Z,224.00
2019-06-15T01:45:52.761Z,244.00
2019-06-15T01:46:52.644Z,244.00
2019-06-15T01:47:52.569Z,248.00
2019-06-15T01:48:53.304Z,220.00
2019-06-15T01:49:52.581Z,220.00
2019-06-15T01:50:52.653Z,240.00
2019-06-15T01:51:52.902Z,240.00
2019-06-15T01:52:52.718Z,240.00
2019-06-15T01:53:52.760Z,228.00
2019-06-15T01:54:52.506Z,256.00
2019-06-15T01:55:52.479Z,216.00
2019-06-15T01:56:54.276Z,284.00
2019-06-15T01:57:52.590Z,284.00
2019-06-15T01:58:52.418Z,288.00
2019-06-15T01:59:52.633Z,340.00
2019-06-15T02:00:52.675Z,304.00
2019-06-15T02:01:52.553Z,312.00
2019-06-15T02:02:52.677Z,376.00
2019-06-15T02:03:53.274Z,436.00
2019-06-15T02:04:52.418Z,356.00
2019-06-15T02:05:52.405Z,436.00
2019-06-15T02:06:52.634Z,400.00
2019-06-15T02:07:53.267Z,344.00
2019-06-15T02:08:53.154Z,364.00
2019-06-15T02:09:52.576Z,324.00
2019-06-15T02:10:52.592Z,372.00
2019-06-15T02:11:52.648Z,512.00
2019-06-15T02:12:52.353Z,444.00
2019-06-15T02:13:52.319Z,484.00
2019-06-15T02:14:52.324Z,516.00
2019-06-15T02:15:52.444Z,492.00
2019-06-15T02:16:52.367Z,436.00
2019-06-15T02:17:52.383Z,432.00
2019-06-15T02:18:52.543Z,544.00
2019-06-15T02:19:52.515Z,472.00
2019-06-15T02:20:54.239Z,452.00
2019-06-15T02:21:52.382Z,468.00
2019-06-15T02:22:52.373Z,464.00
2019-06-15T02:23:52.521Z,484.00
2019-06-15T02:24:52.185Z,660.00
2019-06-15T02:26:52.423Z,776.00
2019-06-15T02:27:52.283Z,724.00
2019-06-15T02:28:52.303Z,656.00
2019-06-15T02:29:54.834Z,704.00
2019-06-15T02:30:52.159Z,656.00
2019-06-15T02:31:53.037Z,596.00
2019-06-15T02:32:52.629Z,620.00
2019-06-15T02:33:52.111Z,756.00
2019-06-15T02:34:52.228Z,1000.00
2019-06-15T02:35:52.691Z,780.00
2019-06-15T02:36:53.707Z,828.00
2019-06-15T02:37:54.704Z,808.00
2019-06-15T02:38:54.354Z,1000.00
2019-06-15T02:39:52.211Z,1076.00
2019-06-15T02:40:52.026Z,784.00
2019-06-15T02:41:52.009Z,932.00
2019-06-15T02:42:52.908Z,840.00
2019-06-15T02:43:52.143Z,944.00
2019-06-15T02:44:52.000Z,992.00
2019-06-15T02:45:52.035Z,1128.00
2019-06-15T02:46:51.896Z,1148.00
2019-06-15T02:47:52.948Z,1188.00
2019-06-15T02:48:52.030Z,1232.00
2019-06-15T02:49:52.079Z,1480.00
2019-06-15T02:50:53.062Z,1356.00
2019-06-15T02:51:51.918Z,1168.00
2019-06-15T02:52:51.890Z,1312.00
2019-06-15T02:53:51.973Z,1332.00
2019-06-15T02:54:52.750Z,1524.00
2019-06-15T02:55:52.019Z,1580.00
2019-06-15T02:56:51.961Z,1644.00
2019-06-15T02:57:51.824Z,1740.00
2019-06-15T02:58:52.951Z,1904.00
2019-06-15T02:59:51.891Z,1536.00
2019-06-15T03:00:51.897Z,1376.00
2019-06-15T03:01:51.983Z,1364.00
2019-06-15T03:02:53.750Z,1440.00
2019-06-15T03:03:51.877Z,1460.00
2019-06-15T03:04:51.757Z,1636.00
2019-06-15T03:05:51.972Z,1416.00
2019-06-15T03:06:51.918Z,1244.00
2019-06-15T03:07:51.875Z,1368.00
2019-06-15T03:08:52.394Z,1492.00
2019-06-15T03:09:51.922Z,1612.00
2019-06-15T03:10:51.803Z,1740.00
2019-06-15T03:11:52.357Z,1416.00
2019-06-15T03:12:51.724Z,1484.00
2019-06-15T03:13:52.380Z,1660.00
2019-06-15T03:14:53.502Z,1592.00
2019-06-15T03:15:51.628Z,1728.00
2019-06-15T03:16:51.565Z,1864.00
2019-06-15T03:17:52.294Z,1660.00
2019-06-15T03:18:53.357Z,1660.00
2019-06-15T03:19:51.599Z,1956.00
2019-06-15T03:20:51.627Z,2152.00
2019-06-15T03:21:52.526Z,1976.00
2019-06-15T03:22:51.523Z,2612.00
2019-06-15T03:23:51.542Z,3044.00
2019-06-15T03:24:51.524Z,2440.00
2019-06-15T03:26:04.715Z,1932.00
2019-06-15T03:26:51.714Z,1896.00
2019-06-15T03:27:51.622Z,1732.00
2019-06-15T03:28:51.637Z,1596.00
2019-06-15T03:29:51.547Z,1940.00
2019-06-15T03:30:51.581Z,1808.00
2019-06-15T03:31:51.653Z,1644.00
2019-06-15T03:32:51.582Z,1456.00
2019-06-15T03:33:51.541Z,1704.00
2019-06-15T03:34:52.267Z,1692.00
2019-06-15T03:35:51.551Z,1560.00
2019-06-15T03:36:51.602Z,1432.00
2019-06-15T03:37:51.606Z,1540.00
2019-06-15T03:38:51.677Z,1500.00
2019-06-15T03:39:51.583Z,1740.00
2019-06-15T03:40:52.499Z,1816.00
2019-06-15T03:41:54.331Z,2004.00
2019-06-15T03:42:51.466Z,2008.00
2019-06-15T03:43:51.298Z,1964.00
2019-06-15T03:44:52.373Z,2228.00
2019-06-15T03:45:51.462Z,2340.00
2019-06-15T03:46:53.390Z,2020.00
2019-06-15T03:47:51.367Z,1952.00
2019-06-15T03:48:52.321Z,2080.00
2019-06-15T03:49:51.454Z,1992.00
2019-06-15T03:50:51.314Z,2100.00
2019-06-15T03:51:51.287Z,2052.00
2019-06-15T03:52:52.010Z,1800.00
2019-06-15T03:53:51.495Z,1496.00
2019-06-15T03:54:51.406Z,1428.00
2019-06-15T03:55:51.779Z,1872.00
2019-06-15T03:56:52.011Z,1880.00
2019-06-15T03:57:51.420Z,1764.00
2019-06-15T03:58:53.824Z,1916.00
2019-06-15T03:59:52.800Z,2012.00
2019-06-15T04:00:51.315Z,2040.00
2019-06-15T04:01:51.380Z,1968.00
2019-06-15T04:02:51.390Z,1768.00
2019-06-15T04:03:51.193Z,2084.00
2019-06-15T04:04:52.398Z,2028.00
2019-06-15T04:05:51.057Z,1536.00
2019-06-15T04:06:51.154Z,1856.00
2019-06-15T04:07:51.160Z,2384.00
2019-06-15T04:08:51.086Z,2416.00
2019-06-15T04:09:52.826Z,1964.00
2019-06-15T04:10:51.079Z,1848.00
2019-06-15T04:11:51.041Z,2512.00
2019-06-15T04:12:51.157Z,2776.00
2019-06-15T04:13:51.089Z,2416.00
2019-06-15T04:14:50.960Z,2908.00
2019-06-15T04:15:51.208Z,3220.00
2019-06-15T04:16:51.166Z,2736.00
2019-06-15T04:17:51.276Z,2756.00
2019-06-15T04:18:51.172Z,2716.00
2019-06-15T04:19:51.185Z,3004.00
2019-06-15T04:20:50.995Z,2752.00
2019-06-15T04:21:51.115Z,2520.00
2019-06-15T04:22:50.947Z,3100.00
2019-06-15T04:23:51.097Z,3536.00
2019-06-15T04:24:51.021Z,3304.00
2019-06-15T04:25:51.190Z,3648.00
2019-06-15T04:26:51.017Z,3336.00
2019-06-15T04:27:50.903Z,3876.00
2019-06-15T04:28:50.971Z,2920.00
2019-06-15T04:29:51.828Z,3804.00
2019-06-15T04:30:50.782Z,3404.00
2019-06-15T04:31:51.049Z,3132.00
2019-06-15T04:32:50.942Z,3728.00
2019-06-15T04:33:51.011Z,3116.00
2019-06-15T04:34:53.855Z,3384.00
2019-06-15T04:35:50.966Z,3100.00
2019-06-15T04:36:50.779Z,4908.00
2019-06-15T04:38:51.420Z,2772.00
2019-06-15T04:40:50.757Z,4780.00
2019-06-15T04:41:50.906Z,4332.00
2019-06-15T04:42:50.942Z,3736.00
2019-06-15T04:43:58.507Z,3616.00
2019-06-15T04:45:45.287Z,4680.00
2019-06-15T04:46:48.350Z,2836.00
2019-06-15T04:47:43.744Z,1808.00
2019-06-15T04:48:58.231Z,2404.00
2019-06-15T04:49:45.245Z,3764.00
2019-06-15T04:50:43.839Z,4052.00
2019-06-15T04:51:43.818Z,2872.00
2019-06-15T04:52:43.640Z,2596.00
2019-06-15T04:53:44.176Z,2740.00
2019-06-15T04:54:43.575Z,4256.00
2019-06-15T04:55:44.126Z,4644.00
2019-06-15T04:56:50.898Z,4472.00
2019-06-15T04:57:43.477Z,4668.00
2019-06-15T04:58:43.600Z,4264.00
2019-06-15T04:59:43.742Z,3696.00
2019-06-15T05:00:43.568Z,4428.00
2019-06-15T05:01:43.511Z,6180.00
2019-06-15T05:02:43.699Z,6036.00
2019-06-15T05:03:43.348Z,4796.00
2019-06-15T05:04:43.603Z,4232.00
2019-06-15T05:05:43.433Z,3836.00
2019-06-15T05:06:43.581Z,5220.00
2019-06-15T05:07:43.648Z,6792.00
2019-06-15T05:08:43.516Z,4700.00
2019-06-15T05:09:44.092Z,4736.00
2019-06-15T05:10:45.427Z,4624.00
2019-06-15T05:11:43.539Z,4544.00
2019-06-15T05:12:45.248Z,4272.00
2019-06-15T05:14:45.364Z,6500.00
2019-06-15T05:15:43.436Z,4876.00
2019-06-15T05:16:43.868Z,5280.00
2019-06-15T05:17:46.116Z,4904.00
2019-06-15T05:18:43.419Z,5160.00
2019-06-15T05:19:43.466Z,7232.00
2019-06-15T05:20:43.440Z,6768.00
2019-06-15T05:21:44.275Z,4892.00
2019-06-15T05:22:43.425Z,4372.00
2019-06-15T05:23:43.494Z,5748.00
2019-06-15T05:24:44.182Z,7424.00
2019-06-15T05:25:43.522Z,5196.00
2019-06-15T05:26:43.232Z,5312.00
2019-06-15T05:27:43.306Z,5808.00
2019-06-15T05:28:43.425Z,4772.00
2019-06-15T05:29:44.408Z,6112.00
2019-06-15T05:30:43.225Z,8400.00
2019-06-15T05:31:43.391Z,5636.00
2019-06-15T05:32:43.285Z,6124.00
2019-06-15T05:33:43.326Z,7992.00
2019-06-15T05:34:43.418Z,6524.00
2019-06-15T05:35:43.417Z,5916.00
2019-06-15T05:36:43.151Z,7124.00
2019-06-15T05:37:43.193Z,8228.00
2019-06-15T05:38:51.014Z,5608.00
2019-06-15T05:40:48.297Z,6204.00
2019-06-15T05:41:48.156Z,7600.00
2019-06-15T05:43:41.219Z,5684.00
2019-06-15T05:44:43.218Z,5904.00
2019-06-15T05:46:35.571Z,4612.00
2019-06-15T05:47:37.537Z,5000.00
2019-06-15T05:48:36.168Z,5024.00
2019-06-15T05:49:35.603Z,6260.00
2019-06-15T05:51:58.544Z,6176.00
2019-06-15T05:52:55.555Z,5924.00
2019-06-15T05:54:49.127Z,5048.00
2019-06-15T05:55:49.064Z,4524.00
2019-06-15T05:57:41.801Z,6000.00
2019-06-15T06:00:37.197Z,8204.00
2019-06-15T06:01:36.677Z,8596.00
2019-06-15T06:03:30.252Z,8192.00
2019-06-15T06:04:31.914Z,8388.00
2019-06-15T06:06:38.190Z,6496.00
2019-06-15T06:07:37.095Z,6056.00
2019-06-15T06:09:29.693Z,6472.00
2019-06-15T06:10:29.523Z,6292.00
2019-06-15T06:13:24.009Z,7920.00
2019-06-15T06:15:16.008Z,8548.00
2019-06-15T06:16:15.888Z,7612.00
2019-06-15T06:18:09.410Z,6384.00
2019-06-15T06:21:03.750Z,7604.00
2019-06-15T06:22:02.288Z,9148.00
2019-06-15T06:24:55.169Z,8512.00
2019-06-15T06:26:49.064Z,9652.00
2019-06-15T06:27:48.694Z,9704.00
2019-06-15T06:29:41.480Z,7556.00
2019-06-15T06:30:41.595Z,7332.00
2019-06-15T06:32:35.039Z,8760.00
2019-06-15T06:33:39.527Z,9980.00
2019-06-15T06:35:30.775Z,9128.00
2019-06-15T06:36:28.295Z,8924.00
2019-06-15T06:39:21.579Z,10220.00
2019-06-15T06:41:17.402Z,10300.00
2019-06-15T06:42:16.491Z,10664.00
2019-06-15T06:44:10.518Z,10308.00
2019-06-15T06:45:10.036Z,10164.00
2019-06-15T06:48:02.732Z,8540.00
2019-06-15T06:51:08.216Z,9432.00
2019-06-15T06:53:02.108Z,9528.00
2019-06-15T06:54:02.216Z,9064.00
2019-06-15T06:55:56.091Z,9700.00
2019-06-15T06:58:56.036Z,11332.00
2019-06-15T06:59:55.451Z,10556.00
2019-06-15T07:00:55.496Z,10756.00
2019-06-15T07:01:55.495Z,11648.00
2019-06-15T07:02:56.116Z,10972.00
2019-06-15T07:03:55.983Z,10528.00
2019-06-15T07:04:56.525Z,11112.00
2019-06-15T07:07:55.404Z,13984.00
2019-06-15T07:08:56.048Z,12956.00
2019-06-15T07:09:55.507Z,15000.00
2019-06-15T07:11:55.388Z,16480.00
2019-06-15T07:12:55.512Z,14256.00
2019-06-15T07:13:56.052Z,13576.00
2019-06-15T07:17:55.501Z,14308.00
2019-06-15T07:20:56.518Z,15016.00
2019-06-15T07:21:55.451Z,13912.00
2019-06-15T07:23:55.422Z,13080.00
2019-06-15T07:28:07.501Z,16096.00
2019-06-15T07:28:55.968Z,15480.00
2019-06-15T07:29:55.973Z,21472.00
2019-06-15T07:31:57.060Z,13400.00
2019-06-15T07:32:55.505Z,11868.00
2019-06-15T07:33:55.436Z,15648.00
2019-06-15T07:34:55.480Z,16384.00
2019-06-15T07:36:55.479Z,11872.00
2019-06-15T07:37:55.975Z,10268.00
2019-06-15T07:40:55.374Z,10848.00
2019-06-15T07:46:55.359Z,11468.00
2019-06-15T07:48:56.140Z,12844.00
2019-06-15T07:49:55.351Z,13588.00
2019-06-15T07:51:55.881Z,13180.00
2019-06-15T07:52:55.270Z,13840.00
2019-06-15T07:54:55.890Z,13384.00
2019-06-15T07:55:55.353Z,12552.00
2019-06-15T07:56:55.342Z,11768.00
2019-06-15T08:01:55.322Z,35488.00
2019-06-15T08:02:55.305Z,22528.00
2019-06-15T08:03:55.885Z,19840.00
2019-06-15T08:04:56.141Z,36544.00
2019-06-15T08:05:55.307Z,15748.00
2019-06-15T08:07:55.297Z,24928.00
2019-06-15T08:09:03.932Z,37888.00
2019-06-15T08:10:48.786Z,35392.00
2019-06-15T08:15:41.588Z,39392.00
2019-06-15T08:19:36.426Z,37088.00
2019-06-15T08:21:28.380Z,35872.00
2019-06-15T08:22:28.380Z,36064.00
2019-06-15T08:24:23.393Z,36352.00
2019-06-15T08:27:14.765Z,37664.00
2019-06-15T08:31:08.954Z,39328.00
2019-06-15T08:33:00.514Z,27552.00
2019-06-15T08:34:00.259Z,37632.00
2019-06-15T08:36:53.698Z,38912.00
2019-06-15T08:38:47.159Z,38400.00
2019-06-15T08:40:47.225Z,38336.00
2019-06-15T08:41:47.027Z,38080.00
2019-06-15T08:42:47.239Z,38272.00
2019-06-15T08:43:47.842Z,38176.00
2019-06-15T08:44:47.220Z,38304.00
2019-06-15T08:45:47.123Z,38432.00
2019-06-15T08:46:47.148Z,38560.00
2019-06-15T08:47:47.146Z,38656.00
2019-06-15T08:48:47.175Z,38560.00
2019-06-15T08:49:54.866Z,38752.00
2019-06-15T08:51:40.298Z,38368.00
2019-06-15T08:52:47.790Z,38656.00
2019-06-15T08:54:33.626Z,38752.00
2019-06-15T08:55:34.996Z,38720.00
2019-06-15T08:57:26.760Z,39040.00
2019-06-15T08:58:26.670Z,39200.00
2019-06-15T09:00:19.164Z,39392.00
2019-06-15T09:01:19.151Z,39424.00
2019-06-15T09:02:19.340Z,39488.00
2019-06-15T09:03:19.419Z,39488.00
2019-06-15T09:04:19.207Z,39648.00
2019-06-15T09:05:20.834Z,39776.00
2019-06-15T09:06:19.271Z,39776.00
2019-06-15T09:07:19.203Z,39936.00
2019-06-15T09:08:19.360Z,40000.00
2019-06-15T09:09:19.382Z,39968.00
2019-06-15T09:10:20.130Z,40224.00
2019-06-15T09:11:19.474Z,40160.00
2019-06-15T09:12:19.248Z,40224.00
2019-06-15T09:13:20.298Z,40160.00
2019-06-15T09:14:19.422Z,40256.00
2019-06-15T09:15:19.273Z,40352.00
2019-06-15T09:16:19.494Z,40544.00
2019-06-15T09:17:19.246Z,40640.00
2019-06-15T09:18:21.164Z,40704.00
2019-06-15T09:19:20.255Z,40864.00
2019-06-15T09:20:19.360Z,40992.00
2019-06-15T09:22:19.352Z,41184.00
2019-06-15T09:23:19.269Z,41312.00
2019-06-15T09:24:27.079Z,41408.00
2019-06-15T09:26:12.913Z,41760.00
2019-06-15T09:27:13.301Z,41664.00
2019-06-15T09:28:12.835Z,41376.00
2019-06-15T09:29:12.910Z,41440.00
2019-06-15T09:30:12.897Z,41504.00
2019-06-15T09:31:12.920Z,41760.00
2019-06-15T09:32:12.980Z,41856.00
2019-06-15T09:33:12.803Z,41920.00
2019-06-15T09:34:18.953Z,41888.00
2019-06-15T09:35:12.899Z,42112.00
2019-06-15T09:36:12.864Z,42240.00
2019-06-15T09:37:12.827Z,42400.00
2019-06-15T09:38:12.838Z,42432.00
2019-06-15T09:39:14.596Z,42720.00
2019-06-15T09:40:12.925Z,42784.00
2019-06-15T09:41:13.090Z,42976.00
2019-06-15T09:42:12.855Z,43040.00
2019-06-15T09:43:12.966Z,43136.00
2019-06-15T09:44:12.972Z,43200.00
2019-06-15T09:45:13.886Z,43360.00
2019-06-15T09:46:13.265Z,43328.00
2019-06-15T09:47:13.786Z,43424.00
2019-06-15T09:48:13.067Z,43488.00
2019-06-15T09:49:13.232Z,43776.00
2019-06-15T09:50:13.169Z,43840.00
2019-06-15T09:51:13.137Z,44032.00
2019-06-15T09:52:13.138Z,44224.00
2019-06-15T09:54:13.066Z,44448.00
2019-06-15T09:55:13.121Z,44448.00
2019-06-15T09:56:13.060Z,44672.00
2019-06-15T09:57:13.240Z,44704.00
2019-06-15T09:58:13.099Z,44960.00
2019-06-15T09:59:25.260Z,45024.00
2019-06-15T10:00:13.225Z,45312.00
2019-06-15T10:01:13.146Z,45408.00
2019-06-15T10:02:13.110Z,45504.00
2019-06-15T10:03:13.307Z,45696.00
2019-06-15T10:04:13.737Z,45696.00
2019-06-15T10:05:13.141Z,45984.00
2019-06-15T10:06:13.942Z,46176.00
2019-06-15T10:07:14.955Z,46240.00
2019-06-15T10:08:13.206Z,46208.00
2019-06-15T10:09:13.388Z,46144.00
2019-06-15T10:10:13.351Z,46176.00
2019-06-15T10:11:13.250Z,46432.00
2019-06-15T10:12:13.302Z,46816.00
2019-06-15T10:13:13.418Z,46848.00
2019-06-15T10:14:13.374Z,46624.00
2019-06-15T10:15:13.256Z,46944.00
2019-06-15T10:16:13.345Z,47040.00
2019-06-15T10:17:13.354Z,47232.00
2019-06-15T10:18:13.383Z,47456.00
2019-06-15T10:19:13.832Z,47552.00
2019-06-15T10:20:13.398Z,47776.00
2019-06-15T10:21:13.322Z,48064.00
2019-06-15T10:22:13.296Z,47872.00
2019-06-15T10:23:13.383Z,48096.00
2019-06-15T10:24:13.430Z,47808.00
2019-06-15T10:25:13.516Z,48384.00
2019-06-15T10:26:14.415Z,48448.00
2019-06-15T10:27:13.355Z,48544.00
2019-06-15T10:28:13.613Z,48544.00
2019-06-15T10:29:13.747Z,48416.00
2019-06-15T10:30:13.577Z,48448.00
2019-06-15T10:31:13.662Z,48096.00
2019-06-15T10:32:13.483Z,48160.00
2019-06-15T10:33:13.755Z,48512.00
2019-06-15T10:34:13.840Z,49216.00
2019-06-15T10:35:13.635Z,49376.00
2019-06-15T10:36:13.586Z,49408.00
2019-06-15T10:37:13.587Z,49696.00
2019-06-15T10:38:13.744Z,49600.00
2019-06-15T10:39:13.668Z,50720.00
2019-06-15T10:40:13.767Z,51008.00
2019-06-15T10:41:13.782Z,50592.00
2019-06-15T10:42:13.885Z,50624.00
2019-06-15T10:43:13.908Z,50240.00
2019-06-15T10:44:13.811Z,50464.00
2019-06-15T10:45:13.862Z,49952.00
2019-06-15T10:46:13.813Z,50240.00
2019-06-15T10:48:13.905Z,50720.00
2019-06-15T10:49:13.862Z,50688.00
2019-06-15T10:50:13.869Z,50848.00
2019-06-15T10:51:13.896Z,51680.00
2019-06-15T10:52:13.714Z,51648.00
2019-06-15T10:53:13.782Z,51840.00
2019-06-15T10:54:13.779Z,52576.00
2019-06-15T10:55:13.836Z,53152.00
2019-06-15T10:56:13.894Z,52992.00
2019-06-15T10:58:34.369Z,52640.00
2019-06-15T10:59:34.465Z,52544.00
2019-06-15T11:01:39.993Z,53184.00
2019-06-15T11:02:39.943Z,53120.00
2019-06-15T11:04:32.737Z,46784.00
2019-06-15T11:05:32.848Z,45728.00
2019-06-15T11:06:32.811Z,50336.00
2019-06-15T11:07:32.918Z,51680.00
2019-06-15T11:08:32.788Z,53152.00
2019-06-15T11:09:32.989Z,51840.00
2019-06-15T11:10:33.009Z,50432.00
2019-06-15T11:11:32.898Z,49184.00
2019-06-15T11:12:45.285Z,46624.00
2019-06-15T11:13:32.994Z,47008.00
2019-06-15T11:14:32.845Z,51936.00
2019-06-15T11:15:33.171Z,42848.00
2019-06-15T11:16:33.011Z,41728.00
2019-06-15T11:17:32.962Z,40384.00
2019-06-15T11:18:33.034Z,44640.00
2019-06-15T11:19:32.903Z,40128.00
2019-06-15T11:20:33.044Z,42400.00
2019-06-15T11:21:33.017Z,47456.00
2019-06-15T11:22:33.026Z,48000.00
2019-06-15T11:23:33.105Z,46144.00
2019-06-15T11:24:33.046Z,46176.00
2019-06-15T11:25:33.141Z,43584.00
2019-06-15T11:26:33.212Z,27168.00
2019-06-15T11:27:33.002Z,15644.00
2019-06-15T11:28:33.002Z,15020.00
2019-06-15T11:29:33.062Z,15272.00
2019-06-15T11:30:33.074Z,14768.00
2019-06-15T11:31:33.109Z,15972.00
2019-06-15T11:32:33.143Z,17632.00
2019-06-15T11:33:33.162Z,24512.00
2019-06-15T11:34:33.316Z,29408.00
2019-06-15T11:35:33.315Z,30720.00
2019-06-15T11:36:33.256Z,25056.00
2019-06-15T11:37:33.943Z,25440.00
2019-06-15T11:38:34.038Z,26112.00
2019-06-15T11:40:33.523Z,23456.00
2019-06-15T11:41:33.543Z,25344.00
2019-06-15T11:42:34.018Z,30784.00
2019-06-15T11:43:33.464Z,32096.00
2019-06-15T11:44:33.512Z,24864.00
2019-06-15T11:45:34.069Z,24064.00
2019-06-15T11:46:33.579Z,25152.00
2019-06-15T11:47:33.576Z,26144.00
2019-06-15T11:48:35.231Z,29056.00
2019-06-15T11:49:33.502Z,32128.00
2019-06-15T11:50:34.029Z,33440.00
2019-06-15T11:51:33.588Z,37696.00
2019-06-15T11:53:33.658Z,46208.00
2019-06-15T11:54:33.552Z,47456.00
2019-06-15T11:55:39.581Z,51680.00
2019-06-15T11:56:33.431Z,54752.00
2019-06-15T11:58:33.323Z,50528.00
2019-06-15T11:59:33.322Z,39712.00
2019-06-15T12:00:33.419Z,15888.00
2019-06-15T12:01:33.352Z,41248.00
2019-06-15T12:02:33.306Z,36416.00
2019-06-15T12:03:34.909Z,31616.00
2019-06-15T12:04:33.431Z,52928.00
2019-06-15T12:05:33.555Z,54176.00
2019-06-15T12:06:33.466Z,19360.00
2019-06-15T12:07:34.482Z,51200.00
2019-06-15T12:08:33.457Z,51872.00
2019-06-15T12:09:34.490Z,52320.00
2019-06-15T12:10:33.365Z,33024.00
2019-06-15T12:11:33.399Z,52000.00
2019-06-15T12:12:33.449Z,51712.00
2019-06-15T12:13:33.348Z,51232.00
2019-06-15T12:14:33.355Z,50752.00
2019-06-15T12:15:34.397Z,49408.00
2019-06-15T12:16:33.531Z,32352.00
2019-06-15T12:17:33.532Z,16160.00
2019-06-15T12:18:33.457Z,13144.00
2019-06-15T12:19:33.442Z,13272.00
2019-06-15T12:20:33.590Z,14468.00
2019-06-15T12:21:33.695Z,15612.00
2019-06-15T12:22:33.579Z,47968.00
2019-06-15T12:23:33.608Z,45824.00
2019-06-15T12:24:33.449Z,47360.00
2019-06-15T12:25:33.593Z,49888.00
2019-06-15T12:26:33.565Z,51104.00
2019-06-15T12:27:33.517Z,50272.00
2019-06-15T12:28:33.610Z,49856.00
2019-06-15T12:29:33.676Z,51136.00
2019-06-15T12:30:45.571Z,50752.00
2019-06-15T12:31:36.342Z,50656.00
2019-06-15T12:32:34.348Z,50912.00
2019-06-15T12:33:33.737Z,51584.00
2019-06-15T12:34:33.725Z,52384.00
2019-06-15T12:35:33.750Z,53248.00
2019-06-15T12:36:33.701Z,55072.00
2019-06-15T12:37:33.735Z,56608.00
2019-06-15T12:38:33.681Z,56480.00
2019-06-15T12:39:33.623Z,57440.00
2019-06-15T12:40:33.798Z,57760.00
2019-06-15T12:41:33.646Z,58048.00
2019-06-15T12:42:33.622Z,57696.00
2019-06-15T12:43:33.625Z,58560.00
2019-06-15T12:44:33.619Z,57344.00
2019-06-15T12:45:33.745Z,55616.00
2019-06-15T12:46:33.770Z,52224.00
2019-06-15T12:47:33.863Z,49952.00
2019-06-15T12:48:33.705Z,52544.00
2019-06-15T12:49:33.873Z,54176.00
2019-06-15T12:50:33.836Z,53568.00
2019-06-15T12:51:33.743Z,51552.00
2019-06-15T12:52:33.740Z,46784.00
2019-06-15T12:53:33.803Z,48704.00
2019-06-15T12:54:33.822Z,49440.00
2019-06-15T12:55:33.761Z,54368.00
2019-06-15T12:56:33.882Z,57504.00
2019-06-15T12:57:34.115Z,59712.00
2019-06-15T12:58:33.811Z,60352.00
2019-06-15T12:59:33.939Z,58976.00
2019-06-15T13:00:33.864Z,59584.00
2019-06-15T13:01:33.958Z,62080.00
2019-06-15T13:02:33.950Z,62624.00
2019-06-15T13:03:34.059Z,62112.00
2019-06-15T13:04:34.033Z,62976.00
2019-06-15T13:05:33.923Z,63744.00
2019-06-15T13:06:34.234Z,63168.00
2019-06-15T13:07:33.969Z,61824.00
2019-06-15T13:08:33.995Z,61056.00
2019-06-15T13:09:33.946Z,62464.00
2019-06-15T13:10:34.010Z,62400.00
2019-06-15T13:11:34.034Z,63232.00
2019-06-15T13:12:33.974Z,63712.00
2019-06-15T13:13:34.020Z,64736.00
2019-06-15T13:14:34.089Z,63936.00
2019-06-15T13:15:34.095Z,63040.00
2019-06-15T13:16:39.530Z,63072.00
2019-06-15T13:17:34.505Z,63104.00
2019-06-15T13:18:34.123Z,61024.00
2019-06-15T13:19:34.121Z,60032.00
2019-06-15T13:20:34.118Z,61664.00
2019-06-15T13:21:34.250Z,59712.00
2019-06-15T13:22:34.222Z,59776.00
2019-06-15T13:23:34.155Z,61184.00
2019-06-15T13:24:34.127Z,62720.00
2019-06-15T13:25:34.132Z,11364.00
2019-06-15T13:26:34.118Z,10560.00
2019-06-15T13:27:34.378Z,27680.00
2019-06-15T13:28:34.314Z,66464.00
2019-06-15T13:30:34.553Z,13488.00
2019-06-15T13:31:34.338Z,12208.00
2019-06-15T13:32:34.491Z,13564.00
2019-06-15T13:33:34.596Z,14980.00
2019-06-15T13:34:35.132Z,13268.00
2019-06-15T13:36:34.594Z,17952.00
2019-06-15T13:39:34.671Z,17088.00
2019-06-15T13:40:36.236Z,53760.00
2019-06-15T13:41:34.613Z,52128.00
2019-06-15T13:42:34.644Z,50368.00
2019-06-15T13:43:34.660Z,49376.00
2019-06-15T13:45:34.656Z,49024.00
2019-06-15T13:46:34.678Z,49504.00
2019-06-15T13:47:34.498Z,50336.00
2019-06-15T13:48:34.685Z,51168.00
2019-06-15T13:49:34.518Z,51680.00
2019-06-15T13:50:34.684Z,55072.00
2019-06-15T13:51:34.553Z,62752.00
2019-06-15T13:52:39.129Z,69760.00